sensor_id;sensor_type;location;lat;lon;timestamp;pressure;altitude;pressure_sealevel;temperature;humidity
32109;BME280;18624;50.042;8.436;2024-03-08T00:00:17;100576.75;;;5.88;80.06
32109;BME280;18624;50.042;8.436;2024-03-08T00:02:47;100588.78;;;5.87;80.56
32109;BME280;18624;50.042;8.436;2024-03-08T00:05:14;100579.09;;;5.86;80.34
32109;BME280;18624;50.042;8.436;2024-03-08T00:07:41;100578.69;;;5.80;80.75
32109;BME280;18624;50.042;8.436;2024-03-08T00:10:10;100586.06;;;5.83;79.30
32109;BME280;18624;50.042;8.436;2024-03-08T00:12:43;100572.50;;;5.76;79.47
32109;BME280;18624;50.042;8.436;2024-03-08T00:15:11;100583.78;;;5.68;79.87
32109;BME280;18624;50.042;8.436;2024-03-08T00:17:41;100571.72;;;5.65;78.63
32109;BME280;18624;50.042;8.436;2024-03-08T00:20:08;100585.31;;;5.69;78.09
32109;BME280;18624;50.042;8.436;2024-03-08T00:22:35;100582.59;;;5.58;78.17
32109;BME280;18624;50.042;8.436;2024-03-08T00:25:03;100562.03;;;5.46;78.39
32109;BME280;18624;50.042;8.436;2024-03-08T00:27:29;100581.44;;;5.55;78.87
32109;BME280;18624;50.042;8.436;2024-03-08T00:29:58;100577.53;;;5.53;78.12
32109;BME280;18624;50.042;8.436;2024-03-08T00:32:25;100570.94;;;5.47;77.73
32109;BME280;18624;50.042;8.436;2024-03-08T00:34:54;100569.38;;;5.35;77.37
32109;BME280;18624;50.042;8.436;2024-03-08T00:37:21;100568.63;;;5.38;77.78
32109;BME280;18624;50.042;8.436;2024-03-08T00:39:51;100572.50;;;5.37;77.34
32109;BME280;18624;50.042;8.436;2024-03-08T00:42:19;100563.16;;;5.31;77.32
32109;BME280;18624;50.042;8.436;2024-03-08T00:44:46;100570.94;;;5.29;77.79
32109;BME280;18624;50.042;8.436;2024-03-08T00:47:12;100558.50;;;5.17;77.90
32109;BME280;18624;50.042;8.436;2024-03-08T00:49:41;100560.06;;;5.22;77.82
32109;BME280;18624;50.042;8.436;2024-03-08T00:52:07;100551.94;;;5.18;77.38
32109;BME280;18624;50.042;8.436;2024-03-08T00:54:35;100553.06;;;5.17;78.02
32109;BME280;18624;50.042;8.436;2024-03-08T00:57:03;100556.16;;;5.12;78.36
32109;BME280;18624;50.042;8.436;2024-03-08T00:59:29;100560.06;;;5.11;79.45
32109;BME280;18624;50.042;8.436;2024-03-08T01:01:59;100555.00;;;5.02;81.72
32109;BME280;18624;50.042;8.436;2024-03-08T01:04:29;100546.47;;;5.00;83.52
32109;BME280;18624;50.042;8.436;2024-03-08T01:06:56;100553.81;;;4.89;85.09
32109;BME280;18624;50.042;8.436;2024-03-08T01:09:26;100548.75;;;4.84;86.29
32109;BME280;18624;50.042;8.436;2024-03-08T01:11:54;100548.38;;;4.78;86.98
32109;BME280;18624;50.042;8.436;2024-03-08T01:14:22;100547.53;;;4.64;87.82
32109;BME280;18624;50.042;8.436;2024-03-08T01:16:49;100544.41;;;4.54;88.20
32109;BME280;18624;50.042;8.436;2024-03-08T01:19:16;100544.41;;;4.54;89.28
32109;BME280;18624;50.042;8.436;2024-03-08T01:21:43;100531.59;;;4.48;88.84
32109;BME280;18624;50.042;8.436;2024-03-08T01:24:09;100535.09;;;4.48;89.25
32109;BME280;18624;50.042;8.436;2024-03-08T01:26:36;100524.59;;;4.43;89.82
32109;BME280;18624;50.042;8.436;2024-03-08T01:29:02;100532.34;;;4.41;90.29
32109;BME280;18624;50.042;8.436;2024-03-08T01:31:30;100527.72;;;4.42;90.43
32109;BME280;18624;50.042;8.436;2024-03-08T01:33:57;100539.34;;;4.49;90.62
32109;BME280;18624;50.042;8.436;2024-03-08T01:36:24;100504.00;;;4.31;90.67
32109;BME280;18624;50.042;8.436;2024-03-08T01:38:51;100525.75;;;4.39;91.87
32109;BME280;18624;50.042;8.436;2024-03-08T01:41:18;100526.50;;;4.36;91.98
32109;BME280;18624;50.042;8.436;2024-03-08T01:43:45;100521.06;;;4.28;92.14
32109;BME280;18624;50.042;8.436;2024-03-08T01:46:15;100513.69;;;4.29;92.93
32109;BME280;18624;50.042;8.436;2024-03-08T01:48:43;100516.41;;;4.25;93.07
32109;BME280;18624;50.042;8.436;2024-03-08T01:51:10;100518.75;;;4.34;93.28
32109;BME280;18624;50.042;8.436;2024-03-08T01:53:38;100505.56;;;4.36;93.18
32109;BME280;18624;50.042;8.436;2024-03-08T01:56:05;100503.22;;;4.31;92.37
32109;BME280;18624;50.042;8.436;2024-03-08T01:58:32;100498.56;;;4.31;92.37
32109;BME280;18624;50.042;8.436;2024-03-08T02:00:59;100501.28;;;4.28;92.08
32109;BME280;18624;50.042;8.436;2024-03-08T02:03:26;100502.00;;;4.18;92.05
32109;BME280;18624;50.042;8.436;2024-03-08T02:05:52;100492.72;;;4.15;93.17
32109;BME280;18624;50.042;8.436;2024-03-08T02:08:19;100457.75;;;3.92;92.81
32109;BME280;18624;50.042;8.436;2024-03-08T02:10:49;100488.84;;;4.16;93.17
32109;BME280;18624;50.042;8.436;2024-03-08T02:13:15;100488.44;;;4.14;93.24
32109;BME280;18624;50.042;8.436;2024-03-08T02:15:58;100481.47;;;4.17;93.05
32109;BME280;18624;50.042;8.436;2024-03-08T02:18:32;100489.63;;;4.17;93.34
32109;BME280;18624;50.042;8.436;2024-03-08T02:21:04;100477.53;;;4.00;94.37
32109;BME280;18624;50.042;8.436;2024-03-08T02:23:32;100477.50;;;3.93;94.81
32109;BME280;18624;50.042;8.436;2024-03-08T02:25:59;100473.25;;;3.92;94.71
32109;BME280;18624;50.042;8.436;2024-03-08T02:28:26;100478.66;;;3.92;94.32
32109;BME280;18624;50.042;8.436;2024-03-08T02:30:52;100472.38;;;3.77;95.27
32109;BME280;18624;50.042;8.436;2024-03-08T02:33:23;100473.19;;;3.81;95.29
32109;BME280;18624;50.042;8.436;2024-03-08T02:35:51;100435.84;;;3.49;95.08
32109;BME280;18624;50.042;8.436;2024-03-08T02:38:20;100465.38;;;3.72;96.45
32109;BME280;18624;50.042;8.436;2024-03-08T02:40:49;100461.19;;;3.78;96.33
32109;BME280;18624;50.042;8.436;2024-03-08T02:43:17;100462.97;;;3.60;96.11
32109;BME280;18624;50.042;8.436;2024-03-08T02:45:44;100457.19;;;3.58;97.64
32109;BME280;18624;50.042;8.436;2024-03-08T02:48:12;100422.94;;;3.28;98.03
32109;BME280;18624;50.042;8.436;2024-03-08T02:50:39;100441.66;;;3.48;98.19
32109;BME280;18624;50.042;8.436;2024-03-08T02:53:06;100456.81;;;3.63;97.93
32109;BME280;18624;50.042;8.436;2024-03-08T02:55:34;100451.78;;;3.62;97.45
32109;BME280;18624;50.042;8.436;2024-03-08T02:58:02;100450.59;;;3.59;97.22
32109;BME280;18624;50.042;8.436;2024-03-08T03:00:30;100452.91;;;3.57;97.81
32109;BME280;18624;50.042;8.436;2024-03-08T03:02:57;100455.59;;;3.53;98.31
32109;BME280;18624;50.042;8.436;2024-03-08T03:05:24;100448.63;;;3.52;98.43
32109;BME280;18624;50.042;8.436;2024-03-08T03:07:51;100444.41;;;3.59;98.25
32109;BME280;18624;50.042;8.436;2024-03-08T03:10:17;100443.63;;;3.58;97.90
32109;BME280;18624;50.042;8.436;2024-03-08T03:12:45;100447.88;;;3.59;98.48
32109;BME280;18624;50.042;8.436;2024-03-08T03:15:12;100407.91;;;3.42;98.09
32109;BME280;18624;50.042;8.436;2024-03-08T03:17:40;100440.56;;;3.67;97.34
32109;BME280;18624;50.042;8.436;2024-03-08T03:20:07;100442.13;;;3.68;97.94
32109;BME280;18624;50.042;8.436;2024-03-08T03:22:40;100454.84;;;3.53;98.18
32109;BME280;18624;50.042;8.436;2024-03-08T03:25:09;100448.22;;;3.47;98.63
32109;BME280;18624;50.042;8.436;2024-03-08T03:27:36;100457.91;;;3.48;99.43
32109;BME280;18624;50.042;8.436;2024-03-08T03:30:04;100441.22;;;3.42;99.56
32109;BME280;18624;50.042;8.436;2024-03-08T03:32:50;100438.81;;;3.30;100.00
32109;BME280;18624;50.042;8.436;2024-03-08T03:35:21;100438.00;;;3.22;100.00
32109;BME280;18624;50.042;8.436;2024-03-08T03:37:48;100401.09;;;3.03;100.00
32109;BME280;18624;50.042;8.436;2024-03-08T03:40:28;100433.69;;;3.18;100.00
32109;BME280;18624;50.042;8.436;2024-03-08T03:42:55;100428.66;;;3.16;100.00
32109;BME280;18624;50.042;8.436;2024-03-08T03:45:23;100432.16;;;3.17;100.00
32109;BME280;18624;50.042;8.436;2024-03-08T03:47:49;100429.47;;;3.20;100.00
32109;BME280;18624;50.042;8.436;2024-03-08T03:50:17;100430.25;;;3.21;100.00
32109;BME280;18624;50.042;8.436;2024-03-08T03:52:46;100424.81;;;3.17;100.00
32109;BME280;18624;50.042;8.436;2024-03-08T03:55:13;100431.28;;;3.02;100.00
32109;BME280;18624;50.042;8.436;2024-03-08T03:57:40;100433.53;;;2.96;100.00
32109;BME280;18624;50.042;8.436;2024-03-08T04:00:07;100424.22;;;2.90;100.00
32109;BME280;18624;50.042;8.436;2024-03-08T04:02:40;100421.56;;;2.97;100.00
32109;BME280;18624;50.042;8.436;2024-03-08T04:05:08;100422.75;;;3.00;100.00
32109;BME280;18624;50.042;8.436;2024-03-08T04:07:35;100425.91;;;3.09;100.00
32109;BME280;18624;50.042;8.436;2024-03-08T04:10:06;100418.19;;;3.11;100.00
32109;BME280;18624;50.042;8.436;2024-03-08T04:12:33;100419.78;;;3.19;100.00
32109;BME280;18624;50.042;8.436;2024-03-08T04:15:00;100427.50;;;3.17;100.00
32109;BME280;18624;50.042;8.436;2024-03-08T04:17:27;100426.31;;;3.15;100.00
32109;BME280;18624;50.042;8.436;2024-03-08T04:19:53;100425.13;;;3.09;100.00
32109;BME280;18624;50.042;8.436;2024-03-08T04:22:20;100426.25;;;3.04;100.00
32109;BME280;18624;50.042;8.436;2024-03-08T04:24:46;100425.88;;;3.05;100.00
32109;BME280;18624;50.042;8.436;2024-03-08T04:27:13;100426.63;;;3.02;100.00
32109;BME280;18624;50.042;8.436;2024-03-08T04:29:43;100351.22;;;2.53;100.00
32109;BME280;18624;50.042;8.436;2024-03-08T04:32:11;100401.81;;;2.93;100.00
32109;BME280;18624;50.042;8.436;2024-03-08T04:34:39;100411.06;;;2.92;100.00
32109;BME280;18624;50.042;8.436;2024-03-08T04:37:10;100415.00;;;2.98;100.00
32109;BME280;18624;50.042;8.436;2024-03-08T04:39:39;100406.09;;;2.98;100.00
32109;BME280;18624;50.042;8.436;2024-03-08T04:42:06;100411.59;;;3.09;100.00
32109;BME280;18624;50.042;8.436;2024-03-08T04:44:37;100413.06;;;2.99;100.00
32109;BME280;18624;50.042;8.436;2024-03-08T04:47:04;100409.97;;;3.00;100.00
32109;BME280;18624;50.042;8.436;2024-03-08T04:49:32;100408.81;;;2.98;100.00
32109;BME280;18624;50.042;8.436;2024-03-08T04:52:04;100405.22;;;2.87;100.00
32109;BME280;18624;50.042;8.436;2024-03-08T04:54:31;100396.28;;;2.79;100.00
32109;BME280;18624;50.042;8.436;2024-03-08T04:56:57;100403.97;;;2.73;100.00
32109;BME280;18624;50.042;8.436;2024-03-08T04:59:27;100403.16;;;2.66;100.00
32109;BME280;18624;50.042;8.436;2024-03-08T05:01:53;100402.34;;;2.62;100.00
32109;BME280;18624;50.042;8.436;2024-03-08T05:04:20;100400.69;;;2.50;100.00
32109;BME280;18624;50.042;8.436;2024-03-08T05:06:47;100399.00;;;2.38;100.00
32109;BME280;18624;50.042;8.436;2024-03-08T05:09:13;100393.50;;;2.27;100.00
32109;BME280;18624;50.042;8.436;2024-03-08T05:11:45;100392.38;;;2.32;100.00
32109;BME280;18624;50.042;8.436;2024-03-08T05:14:13;100398.28;;;2.41;100.00
32109;BME280;18624;50.042;8.436;2024-03-08T05:16:44;100392.38;;;2.32;100.00
32109;BME280;18624;50.042;8.436;2024-03-08T05:19:19;100396.34;;;2.42;100.00
32109;BME280;18624;50.042;8.436;2024-03-08T05:21:47;100395.94;;;2.40;100.00
32109;BME280;18624;50.042;8.436;2024-03-08T05:24:14;100372.34;;;1.99;100.00
32109;BME280;18624;50.042;8.436;2024-03-08T05:26:42;100398.81;;;2.17;100.00
32109;BME280;18624;50.042;8.436;2024-03-08T05:29:09;100396.44;;;2.12;100.00
32109;BME280;18624;50.042;8.436;2024-03-08T05:31:55;100398.06;;;2.20;100.00
32109;BME280;18624;50.042;8.436;2024-03-08T05:34:24;100397.75;;;2.28;100.00
32109;BME280;18624;50.042;8.436;2024-03-08T05:36:51;100391.66;;;2.35;100.00
32109;BME280;18624;50.042;8.436;2024-03-08T05:39:18;100395.44;;;2.27;100.00
32109;BME280;18624;50.042;8.436;2024-03-08T05:41:46;100390.84;;;2.31;100.00
32109;BME280;18624;50.042;8.436;2024-03-08T05:44:13;100394.69;;;2.30;100.00
32109;BME280;18624;50.042;8.436;2024-03-08T05:46:40;100385.69;;;2.19;100.00
32109;BME280;18624;50.042;8.436;2024-03-08T05:49:06;100390.69;;;2.17;100.00
32109;BME280;18624;50.042;8.436;2024-03-08T05:51:35;100384.47;;;2.13;100.00
32109;BME280;18624;50.042;8.436;2024-03-08T05:54:05;100381.81;;;2.20;100.00
32109;BME280;18624;50.042;8.436;2024-03-08T05:56:33;100389.59;;;2.25;100.00
32109;BME280;18624;50.042;8.436;2024-03-08T05:59:00;100382.13;;;2.11;100.00
32109;BME280;18624;50.042;8.436;2024-03-08T06:01:27;100384.88;;;2.15;100.00
32109;BME280;18624;50.042;8.436;2024-03-08T06:03:57;100380.66;;;2.17;100.00
32109;BME280;18624;50.042;8.436;2024-03-08T06:06:24;100382.22;;;2.18;100.00
32109;BME280;18624;50.042;8.436;2024-03-08T06:08:51;100381.00;;;2.12;100.00
32109;BME280;18624;50.042;8.436;2024-03-08T06:11:19;100377.53;;;2.12;100.00
32109;BME280;18624;50.042;8.436;2024-03-08T06:13:46;100377.00;;;2.02;100.00
32109;BME280;18624;50.042;8.436;2024-03-08T06:16:13;100378.16;;;2.01;100.00
32109;BME280;18624;50.042;8.436;2024-03-08T06:18:40;100376.56;;;1.97;100.00
32109;BME280;18624;50.042;8.436;2024-03-08T06:21:08;100374.25;;;1.95;100.00
32109;BME280;18624;50.042;8.436;2024-03-08T06:23:38;100381.50;;;1.88;100.00
32109;BME280;18624;50.042;8.436;2024-03-08T06:26:05;100379.59;;;1.92;100.00
32109;BME280;18624;50.042;8.436;2024-03-08T06:28:32;100366.19;;;2.02;100.00
32109;BME280;18624;50.042;8.436;2024-03-08T06:30:59;100376.22;;;2.02;100.00
32109;BME280;18624;50.042;8.436;2024-03-08T06:33:27;100375.13;;;2.07;100.00
32109;BME280;18624;50.042;8.436;2024-03-08T06:35:54;100337.09;;;1.89;100.00
32109;BME280;18624;50.042;8.436;2024-03-08T06:38:24;100377.56;;;2.19;100.00
32109;BME280;18624;50.042;8.436;2024-03-08T06:40:51;100376.88;;;2.25;100.00
32109;BME280;18624;50.042;8.436;2024-03-08T06:43:17;100347.69;;;2.05;100.00
32109;BME280;18624;50.042;8.436;2024-03-08T06:45:45;100374.13;;;2.22;100.00
32109;BME280;18624;50.042;8.436;2024-03-08T06:48:15;100375.34;;;2.28;100.00
32109;BME280;18624;50.042;8.436;2024-03-08T06:50:47;100373.84;;;2.31;100.00
32109;BME280;18624;50.042;8.436;2024-03-08T06:53:14;100372.34;;;2.37;100.00
32109;BME280;18624;50.042;8.436;2024-03-08T06:55:42;100372.78;;;2.42;100.00
32109;BME280;18624;50.042;8.436;2024-03-08T06:58:10;100368.19;;;2.50;100.00
32109;BME280;18624;50.042;8.436;2024-03-08T07:00:38;100372.78;;;2.42;100.00
32109;BME280;18624;50.042;8.436;2024-03-08T07:03:08;100374.47;;;2.58;100.00
32109;BME280;18624;50.042;8.436;2024-03-08T07:05:38;100371.41;;;2.63;100.00
32109;BME280;18624;50.042;8.436;2024-03-08T07:08:06;100368.25;;;2.53;100.00
32109;BME280;18624;50.042;8.436;2024-03-08T07:10:33;100367.16;;;2.62;100.00
32109;BME280;18624;50.042;8.436;2024-03-08T07:13:01;100374.56;;;2.72;100.00
32109;BME280;18624;50.042;8.436;2024-03-08T07:15:30;100368.47;;;2.82;100.00
32109;BME280;18624;50.042;8.436;2024-03-08T07:17:56;100370.81;;;2.87;100.00
32109;BME280;18624;50.042;8.436;2024-03-08T07:20:23;100376.69;;;2.93;100.00
32109;BME280;18624;50.042;8.436;2024-03-08T07:22:49;100372.84;;;2.97;100.00
32109;BME280;18624;50.042;8.436;2024-03-08T07:25:19;100363.59;;;3.05;100.00
32109;BME280;18624;50.042;8.436;2024-03-08T07:27:53;100363.25;;;3.14;100.00
32109;BME280;18624;50.042;8.436;2024-03-08T07:30:21;100356.72;;;3.22;100.00
32109;BME280;18624;50.042;8.436;2024-03-08T07:33:06;100334.66;;;3.20;100.00
32109;BME280;18624;50.042;8.436;2024-03-08T07:35:34;100347.16;;;3.39;100.00
32109;BME280;18624;50.042;8.436;2024-03-08T07:38:12;100345.25;;;3.47;100.00
32109;BME280;18624;50.042;8.436;2024-03-08T07:40:39;100349.53;;;3.59;100.00
32109;BME280;18624;50.042;8.436;2024-03-08T07:43:07;100337.16;;;3.65;100.00
32109;BME280;18624;50.042;8.436;2024-03-08T07:45:34;100342.22;;;3.66;100.00
32109;BME280;18624;50.042;8.436;2024-03-08T07:48:02;100339.16;;;3.78;100.00
32109;BME280;18624;50.042;8.436;2024-03-08T07:50:29;100332.59;;;3.87;100.00
32109;BME280;18624;50.042;8.436;2024-03-08T07:52:56;100337.66;;;3.99;100.00
32109;BME280;18624;50.042;8.436;2024-03-08T07:55:22;100341.53;;;4.09;100.00
32109;BME280;18624;50.042;8.436;2024-03-08T07:57:50;100330.72;;;4.19;100.00
32109;BME280;18624;50.042;8.436;2024-03-08T08:00:17;100333.44;;;4.16;100.00
32109;BME280;18624;50.042;8.436;2024-03-08T08:02:44;100329.56;;;4.20;100.00
32109;BME280;18624;50.042;8.436;2024-03-08T08:05:12;100326.06;;;4.27;100.00
32109;BME280;18624;50.042;8.436;2024-03-08T08:07:39;100321.41;;;4.31;100.00
32109;BME280;18624;50.042;8.436;2024-03-08T08:10:10;100205.91;;;3.76;100.00
32109;BME280;18624;50.042;8.436;2024-03-08T08:12:43;100325.69;;;4.61;100.00
32109;BME280;18624;50.042;8.436;2024-03-08T08:15:09;100317.16;;;4.66;100.00
32109;BME280;18624;50.042;8.436;2024-03-08T08:17:35;100305.91;;;4.71;99.11
32109;BME280;18624;50.042;8.436;2024-03-08T08:20:02;100307.06;;;4.80;99.10
32109;BME280;18624;50.042;8.436;2024-03-08T08:22:31;100321.41;;;4.88;98.53
32109;BME280;18624;50.042;8.436;2024-03-08T08:24:58;100301.22;;;4.86;97.36
32109;BME280;18624;50.042;8.436;2024-03-08T08:27:24;100300.03;;;4.90;97.62
32109;BME280;18624;50.042;8.436;2024-03-08T08:29:52;100295.38;;;5.01;97.23
32109;BME280;18624;50.042;8.436;2024-03-08T08:32:18;100287.59;;;5.11;97.40
32109;BME280;18624;50.042;8.436;2024-03-08T08:34:46;100284.81;;;5.25;96.88
32109;BME280;18624;50.042;8.436;2024-03-08T08:37:12;100280.13;;;5.32;95.53
32109;BME280;18624;50.042;8.436;2024-03-08T08:39:39;100279.75;;;5.30;96.62
32109;BME280;18624;50.042;8.436;2024-03-08T08:42:05;100239.03;;;5.16;95.49
32109;BME280;18624;50.042;8.436;2024-03-08T08:44:35;100262.97;;;5.46;97.32
32109;BME280;18624;50.042;8.436;2024-03-08T08:47:02;100266.44;;;5.54;92.69
32109;BME280;18624;50.042;8.436;2024-03-08T08:49:38;100261.00;;;5.54;93.73
32109;BME280;18624;50.042;8.436;2024-03-08T08:52:05;100265.59;;;5.68;93.82
32109;BME280;18624;50.042;8.436;2024-03-08T08:54:42;100249.28;;;5.64;91.88
32109;BME280;18624;50.042;8.436;2024-03-08T08:57:13;100234.97;;;5.56;91.19
32109;BME280;18624;50.042;8.436;2024-03-08T08:59:40;100245.41;;;5.65;92.08
32109;BME280;18624;50.042;8.436;2024-03-08T09:02:06;100247.69;;;5.70;92.38
32109;BME280;18624;50.042;8.436;2024-03-08T09:04:33;100246.50;;;5.75;90.77
32109;BME280;18624;50.042;8.436;2024-03-08T09:06:59;100239.53;;;5.74;91.00
32109;BME280;18624;50.042;8.436;2024-03-08T09:09:27;100237.88;;;5.87;92.04
32109;BME280;18624;50.042;8.436;2024-03-08T09:11:53;100228.13;;;5.97;90.94
32109;BME280;18624;50.042;8.436;2024-03-08T09:14:20;100234.31;;;5.97;90.02
32109;BME280;18624;50.042;8.436;2024-03-08T09:16:47;100230.78;;;6.04;89.83
32109;BME280;18624;50.042;8.436;2024-03-08T09:19:13;100228.03;;;6.07;89.40
32109;BME280;18624;50.042;8.436;2024-03-08T09:21:40;100221.75;;;6.14;89.35
32109;BME280;18624;50.042;8.436;2024-03-08T09:24:07;100224.47;;;6.18;88.45
32109;BME280;18624;50.042;8.436;2024-03-08T09:26:33;100217.72;;;6.29;88.81
32109;BME280;18624;50.042;8.436;2024-03-08T09:29:00;100215.28;;;6.42;88.55
32109;BME280;18624;50.042;8.436;2024-03-08T09:31:26;100211.75;;;6.45;88.79
32109;BME280;18624;50.042;8.436;2024-03-08T09:33:52;100214.41;;;6.52;87.08
32109;BME280;18624;50.042;8.436;2024-03-08T09:36:19;100202.72;;;6.55;86.56
32109;BME280;18624;50.042;8.436;2024-03-08T09:38:46;100189.53;;;6.50;86.02
32109;BME280;18624;50.042;8.436;2024-03-08T09:41:13;100186.78;;;6.54;87.35
32109;BME280;18624;50.042;8.436;2024-03-08T09:43:40;100182.13;;;6.51;85.94
32109;BME280;18624;50.042;8.436;2024-03-08T09:46:07;100119.91;;;6.12;85.62
32109;BME280;18624;50.042;8.436;2024-03-08T09:48:34;100171.69;;;6.46;85.67
32109;BME280;18624;50.042;8.436;2024-03-08T09:51:01;100136.09;;;6.26;86.33
32109;BME280;18624;50.042;8.436;2024-03-08T09:53:28;100166.22;;;6.49;85.50
32109;BME280;18624;50.042;8.436;2024-03-08T09:55:54;100161.53;;;6.50;84.13
32109;BME280;18624;50.042;8.436;2024-03-08T09:58:21;100152.94;;;6.51;84.62
32109;BME280;18624;50.042;8.436;2024-03-08T10:01:11;100137.72;;;6.57;84.59
32109;BME280;18624;50.042;8.436;2024-03-08T10:03:38;100148.84;;;6.70;85.37
32109;BME280;18624;50.042;8.436;2024-03-08T10:06:06;100134.50;;;6.66;83.29
32109;BME280;18624;50.042;8.436;2024-03-08T10:08:32;100128.34;;;6.62;82.12
32109;BME280;18624;50.042;8.436;2024-03-08T10:10:59;100117.84;;;6.60;83.08
32109;BME280;18624;50.042;8.436;2024-03-08T10:13:26;100116.22;;;6.67;85.00
32109;BME280;18624;50.042;8.436;2024-03-08T10:15:56;100136.28;;;6.80;81.97
32109;BME280;18624;50.042;8.436;2024-03-08T10:18:22;100116.34;;;6.87;81.75
32109;BME280;18624;50.042;8.436;2024-03-08T10:21:05;100112.81;;;6.90;83.22
32109;BME280;18624;50.042;8.436;2024-03-08T10:23:33;100104.19;;;6.95;82.11
32109;BME280;18624;50.042;8.436;2024-03-08T10:26:10;100104.03;;;7.05;82.64
32109;BME280;18624;50.042;8.436;2024-03-08T10:28:37;100101.94;;;7.17;80.70
32109;BME280;18624;50.042;8.436;2024-03-08T10:31:04;100091.41;;;7.15;80.99
32109;BME280;18624;50.042;8.436;2024-03-08T10:33:32;100093.28;;;7.22;80.13
32109;BME280;18624;50.042;8.436;2024-03-08T10:35:59;100094.41;;;7.24;81.10
32109;BME280;18624;50.042;8.436;2024-03-08T10:38:30;100089.31;;;7.26;80.81
32109;BME280;18624;50.042;8.436;2024-03-08T10:41:00;100091.22;;;7.29;79.10
32109;BME280;18624;50.042;8.436;2024-03-08T10:43:31;100088.56;;;7.26;79.64
32109;BME280;18624;50.042;8.436;2024-03-08T10:46:16;100081.16;;;7.26;79.76
32109;BME280;18624;50.042;8.436;2024-03-08T10:48:49;100090.81;;;7.31;79.84
32109;BME280;18624;50.042;8.436;2024-03-08T10:51:16;100083.31;;;7.39;81.56
32109;BME280;18624;50.042;8.436;2024-03-08T10:53:44;100075.75;;;7.46;79.12
32109;BME280;18624;50.042;8.436;2024-03-08T10:56:12;100078.00;;;7.51;73.95
32109;BME280;18624;50.042;8.436;2024-03-08T10:58:41;100078.72;;;7.55;73.38
32109;BME280;18624;50.042;8.436;2024-03-08T11:01:10;100043.56;;;7.38;74.67
32109;BME280;18624;50.042;8.436;2024-03-08T11:06:23;100070.72;;;7.68;72.68
32109;BME280;18624;50.042;8.436;2024-03-08T11:08:55;100055.91;;;7.69;74.27
32109;BME280;18624;50.042;8.436;2024-03-08T11:11:33;100065.22;;;7.72;74.81
32109;BME280;18624;50.042;8.436;2024-03-08T11:14:02;100059.75;;;7.72;76.45
32109;BME280;18624;50.042;8.436;2024-03-08T11:19:04;100040.47;;;7.82;74.18
32109;BME280;18624;50.042;8.436;2024-03-08T11:21:32;100056.06;;;7.82;71.61
32109;BME280;18624;50.042;8.436;2024-03-08T11:24:10;100046.69;;;7.83;72.43
32109;BME280;18624;50.042;8.436;2024-03-08T11:26:38;100035.66;;;7.90;72.88
32109;BME280;18624;50.042;8.436;2024-03-08T11:32:17;100035.16;;;7.95;72.13
32109;BME280;18624;50.042;8.436;2024-03-08T11:34:47;100026.56;;;7.97;71.11
32109;BME280;18624;50.042;8.436;2024-03-08T11:37:20;100028.50;;;7.96;70.00
32109;BME280;18624;50.042;8.436;2024-03-08T11:39:51;100023.16;;;7.93;68.96
32109;BME280;18624;50.042;8.436;2024-03-08T11:42:19;100027.75;;;7.96;70.99
32109;BME280;18624;50.042;8.436;2024-03-08T11:44:46;100026.56;;;7.97;70.10
32109;BME280;18624;50.042;8.436;2024-03-08T11:47:14;100015.94;;;8.02;70.50
32109;BME280;18624;50.042;8.436;2024-03-08T11:49:42;100015.00;;;8.09;69.60
32109;BME280;18624;50.042;8.436;2024-03-08T11:52:19;100019.91;;;8.18;69.44
32109;BME280;18624;50.042;8.436;2024-03-08T11:54:53;100009.28;;;8.23;70.69
32109;BME280;18624;50.042;8.436;2024-03-08T11:57:25;99999.34;;;8.13;69.91
32109;BME280;18624;50.042;8.436;2024-03-08T11:59:52;99998.34;;;8.23;70.64
32109;BME280;18624;50.042;8.436;2024-03-08T12:02:23;99989.00;;;8.24;71.81
32109;BME280;18624;50.042;8.436;2024-03-08T12:05:00;99983.44;;;8.28;72.06
32109;BME280;18624;50.042;8.436;2024-03-08T12:07:27;99985.25;;;8.34;72.12
32109;BME280;18624;50.042;8.436;2024-03-08T12:10:14;99996.84;;;8.42;68.98
32109;BME280;18624;50.042;8.436;2024-03-08T12:12:47;99990.59;;;8.42;69.49
32109;BME280;18624;50.042;8.436;2024-03-08T12:15:15;99989.75;;;8.45;68.85
32109;BME280;18624;50.042;8.436;2024-03-08T12:17:42;99982.81;;;8.40;66.98
32109;BME280;18624;50.042;8.436;2024-03-08T12:22:43;99978.13;;;8.41;67.88
32109;BME280;18624;50.042;8.436;2024-03-08T12:25:13;99974.63;;;8.40;68.76
32109;BME280;18624;50.042;8.436;2024-03-08T12:27:41;99925.19;;;8.15;68.67
32109;BME280;18624;50.042;8.436;2024-03-08T12:30:25;99961.34;;;8.42;68.27
32109;BME280;18624;50.042;8.436;2024-03-08T12:32:59;99958.44;;;8.49;67.87
32109;BME280;18624;50.042;8.436;2024-03-08T12:35:28;99961.00;;;8.56;69.38
32109;BME280;18624;50.042;8.436;2024-03-08T12:37:59;99954.59;;;8.63;71.51
32109;BME280;18624;50.042;8.436;2024-03-08T12:40:30;99956.13;;;8.64;69.85
32109;BME280;18624;50.042;8.436;2024-03-08T12:43:01;99949.97;;;8.60;70.94
32109;BME280;18624;50.042;8.436;2024-03-08T12:45:32;99951.88;;;8.63;70.12
32109;BME280;18624;50.042;8.436;2024-03-08T12:47:59;99942.00;;;8.69;69.06
32109;BME280;18624;50.042;8.436;2024-03-08T12:50:26;99947.34;;;8.73;68.05
32109;BME280;18624;50.042;8.436;2024-03-08T12:52:52;99934.81;;;8.75;69.15
32109;BME280;18624;50.042;8.436;2024-03-08T12:55:19;99935.59;;;8.76;68.13
32109;BME280;18624;50.042;8.436;2024-03-08T12:57:46;99946.75;;;8.81;68.06
32109;BME280;18624;50.042;8.436;2024-03-08T13:00:15;99935.59;;;8.76;67.98
32109;BME280;18624;50.042;8.436;2024-03-08T13:02:50;99922.88;;;8.69;67.87
32109;BME280;18624;50.042;8.436;2024-03-08T13:05:17;99933.19;;;8.78;68.43
32109;BME280;18624;50.042;8.436;2024-03-08T13:07:44;99923.69;;;8.82;68.65
32109;BME280;18624;50.042;8.436;2024-03-08T13:10:14;99916.94;;;8.87;67.80
32109;BME280;18624;50.042;8.436;2024-03-08T13:12:44;99910.72;;;8.86;67.70
32109;BME280;18624;50.042;8.436;2024-03-08T13:15:11;99884.25;;;8.67;67.76